Air Navigation Services of Czech Republic  
Last data update:  15.08.2018 22:09:07 UTC Česká verze
   METEO Page displayed:  15.08.2018 22:09:40 UTC  
help
METAR EDDB 152150Z 18002KT CAVOK 17/12 Q1019 NOSIG=
METAR EDDC 152150Z 21002KT CAVOK 19/11 Q1020=
METAR EDDE 152150Z 20006KT CAVOK 16/10 Q1020=
METAR EDDF 152150Z 36004KT CAVOK 16/13 Q1019 NOSIG=
METAR EDDM 152150Z 09003KT CAVOK 15/13 Q1021 NOSIG=
METAR EDDN 152150Z VRB01KT CAVOK 15/11 Q1020=
METAR EDDP 152150Z 05003KT CAVOK 16/12 Q1020 NOSIG=
METAR EDDT 152150Z VRB01KT CAVOK 17/13 Q1019=
METAR EDQM NIL
METAR EPBY 152200Z VRB01KT CAVOK 13/12 Q1019 =
METAR EPGD 152200Z 27003KT 230V290 CAVOK 14/13 Q1018 =
METAR EPKK 152200Z 24003KT 220V280 CAVOK 18/15 Q1020 =
METAR EPKT 152200Z VRB01KT 6000 0600W BCFG NSC 13/12 Q1020 =
METAR EPLL 152200Z 05001KT CAVOK 15/14 Q1019 =
METAR EPPO 152200Z 16001KT CAVOK 17/13 Q1019 =
METAR EPRZ 152200Z 33003KT CAVOK 18/17 Q1019 =
METAR EPWA 152200Z 27003KT CAVOK 18/15 Q1018 NOSIG=
METAR EPWR 152200Z VRB02KT CAVOK 15/12 Q1020 =
METAR LHBP 152200Z VRB03KT CAVOK 19/18 Q1018 NOSIG=
METAR LHSM NIL
METAR LKCV 152200Z 20003KT CAVOK 17/13 Q1020 NOSIG RMK BLU BLU=
METAR LKKB 152200Z 04002KT CAVOK 20/11 Q1020 RMK BLU=
METAR LKKU NIL
METAR LKKV 152200Z 11004KT CAVOK 12/11 Q1021 RMK REG QNH 1017 =
METAR LKLN 152200Z AUTO 00000KT CAVOK 15/12 Q1021=
METAR LKMT 152200Z 36001KT 9999 FEW043 15/13 Q1020 NOSIG RMK REG QNH 1017=
METAR LKNA 152200Z 36004KT 330V030 CAVOK 17/09 Q1021 RMK BLU=
METAR LKPD 152200Z 24002KT CAVOK 18/10 Q1020 RMK BLU=
METAR LKPR 152200Z 07003KT CAVOK 19/10 Q1021 NOSIG RMK REG QNH 1017=
METAR LKTB 152200Z 04005KT CAVOK 20/12 Q1020 NOSIG RMK REG QNH 1017=
METAR LKVO NIL
METAR LOWI 152150Z AUTO VRB02KT 9999 FEW070 17/13 Q1022=
METAR LOWL 152150Z AUTO 25003KT 210V280 9999 FEW060 BKN080 19/14 Q1020=
METAR LOWS 152150Z AUTO 17005KT 9999 NSC 16/13 Q1021=
METAR LOWW 152150Z 33006KT CAVOK 20/10 Q1019 NOSIG=
METAR LZIB 152200Z 36003KT CAVOK 19/13 Q1019=
METAR LZKZ 152200Z 01011KT CAVOK 21/16 Q1017=
METAR LZPP 152200Z AUTO 34007KT 9999 OVC090/// 20/14 Q1019=
METAR LZSL 152200Z VRB02KT CAVOK 20/12 Q1019=
METAR LZTT 152200Z 26004KT 9999 FEW026 SCT100 13/13 Q1020=
METAR LZZI 152200Z VRB02KT CAVOK 17/14 Q1020=